Time;durP1;ratioP1;P1;durP2;ratioP2;P2;SDS_P1;SDS_P2;PMS_P1;PMS_P2;Temp;Humidity;BMP_temperature;BMP_pressure;BME280_temperature;BME280_humidity;BME280_pressure;Samples;Min_cycle;Max_cycle;Signal;HPM_P1;HPM_P2
2023/12/30 00:02:25;;;;;;;7.57;1.33;;;7.70;85.90;;;;;;9173311;19;20022;-73
2023/12/30 00:05:30;;;;;;;5.40;1.23;;;7.70;86.00;;;;;;9175899;19;20015;-73
2023/12/30 00:08:38;;;;;;;8.40;1.27;;;7.60;86.00;;;;;;9172613;19;20010;-74
2023/12/30 00:11:47;;;;;;;6.30;1.50;;;7.60;85.90;;;;;;9174900;19;20021;-73
2023/12/30 00:14:54;;;;;;;10.93;1.48;;;7.60;86.00;;;;;;9174352;19;20014;-73
2023/12/30 00:18:00;;;;;;;13.27;2.28;;;7.70;86.00;;;;;;9174325;19;20041;-73
2023/12/30 00:21:07;;;;;;;5.85;1.33;;;7.60;86.00;;;;;;9172326;19;20014;-73
2023/12/30 00:24:13;;;;;;;7.78;1.63;;;7.60;86.00;;;;;;9174490;19;20019;-73
2023/12/30 00:27:23;;;;;;;5.15;1.48;;;7.60;86.00;;;;;;9173252;19;20352;-74
2023/12/30 00:30:29;;;;;;;7.95;1.65;;;7.60;86.10;;;;;;9174154;19;20444;-73
2023/12/30 00:33:36;;;;;;;6.75;1.63;;;7.60;86.10;;;;;;9170800;19;20017;-73
2023/12/30 00:36:45;;;;;;;5.80;1.80;;;7.60;86.10;;;;;;9171802;19;20022;-73
2023/12/30 00:39:53;;;;;;;4.85;1.58;;;7.60;86.70;;;;;;9172561;19;20019;-70
2023/12/30 00:43:02;;;;;;;9.95;2.03;;;7.50;86.10;;;;;;9175252;19;20013;-70
2023/12/30 00:46:10;;;;;;;12.05;2.30;;;7.50;86.10;;;;;;9174357;19;20025;-69
2023/12/30 00:49:16;;;;;;;12.50;2.47;;;7.50;86.00;;;;;;9169086;19;20089;-70
2023/12/30 00:52:24;;;;;;;5.63;0.95;;;7.50;86.00;;;;;;9171468;19;20015;-69
2023/12/30 00:55:30;;;;;;;10.63;1.60;;;7.50;86.00;;;;;;9173876;19;20018;-69
2023/12/30 00:58:41;;;;;;;7.32;1.30;;;7.40;86.00;;;;;;9171485;19;20026;-68
2023/12/30 01:01:46;;;;;;;9.18;1.35;;;7.50;86.10;;;;;;9170540;19;20752;-68
2023/12/30 01:04:56;;;;;;;4.85;1.23;;;7.40;86.10;;;;;;9171074;19;20370;-69
2023/12/30 01:08:02;;;;;;;6.57;2.25;;;7.40;86.00;;;;;;9167095;19;20022;-70
2023/12/30 01:11:14;;;;;;;12.15;2.10;;;7.40;86.10;;;;;;9166036;19;20475;-73
2023/12/30 01:14:27;;;;;;;8.15;1.58;;;7.40;86.10;;;;;;9167053;19;20011;-70
2023/12/30 01:17:38;;;;;;;9.60;1.40;;;7.40;86.20;;;;;;9162987;19;20109;-68
2023/12/30 01:20:44;;;;;;;13.05;1.48;;;7.40;86.20;;;;;;9164340;19;20018;-71
2023/12/30 01:23:52;;;;;;;9.00;1.63;;;7.30;86.10;;;;;;9170105;19;20010;-71
2023/12/30 01:26:57;;;;;;;7.35;1.60;;;7.30;86.10;;;;;;9172898;19;20018;-68
2023/12/30 01:30:09;;;;;;;7.53;1.50;;;7.30;86.20;;;;;;9169948;19;20066;-72
2023/12/30 01:33:15;;;;;;;10.13;2.60;;;7.30;86.20;;;;;;9170030;19;20018;-70
2023/12/30 01:36:22;;;;;;;7.78;1.30;;;7.30;86.20;;;;;;9172461;19;20007;-69
2023/12/30 01:42:46;;;;;;;6.60;1.45;;;7.20;86.10;;;;;;9215093;19;20703;-70
2023/12/30 01:45:55;;;;;;;11.57;1.83;;;7.20;86.20;;;;;;9216474;19;20373;-70
2023/12/30 01:49:01;;;;;;;12.80;1.80;;;7.20;86.20;;;;;;9214728;19;20383;-72
2023/12/30 01:52:09;;;;;;;12.40;1.55;;;7.20;86.20;;;;;;9219865;19;20018;-72
2023/12/30 01:55:18;;;;;;;10.48;1.65;;;7.20;86.20;;;;;;9216093;19;20624;-74
2023/12/30 01:58:33;;;;;;;7.60;1.50;;;7.20;86.20;;;;;;9219152;19;20018;-73
2023/12/30 02:01:39;;;;;;;14.50;1.70;;;7.10;86.20;;;;;;9215457;19;20472;-74
2023/12/30 02:04:49;;;;;;;12.80;1.85;;;7.10;86.30;;;;;;9214287;19;20476;-73
2023/12/30 02:07:59;;;;;;;8.27;2.33;;;7.10;86.30;;;;;;9215862;19;20531;-74
2023/12/30 02:11:11;;;;;;;8.00;1.50;;;7.10;86.40;;;;;;9220195;19;20014;-72
2023/12/30 02:14:33;;;;;;;4.97;1.30;;;7.10;86.50;;;;;;9220703;19;20022;-73
2023/12/30 02:17:40;;;;;;;10.48;1.85;;;7.10;86.40;;;;;;9218354;19;20416;-73
2023/12/30 02:20:46;;;;;;;10.18;1.77;;;7.10;86.40;;;;;;9217846;19;20074;-73
2023/12/30 02:23:59;;;;;;;21.75;2.83;;;7.10;86.40;;;;;;9216028;19;20010;-72
2023/12/30 02:27:05;;;;;;;18.75;2.08;;;7.00;86.40;;;;;;9216429;19;20480;-72
2023/12/30 02:30:14;;;;;;;12.95;1.83;;;7.10;86.50;;;;;;9216866;19;20024;-72
2023/12/30 02:33:23;;;;;;;9.30;1.60;;;7.10;86.50;;;;;;9217228;19;20018;-74
2023/12/30 02:36:34;;;;;;;14.25;1.55;;;7.10;86.50;;;;;;9211799;19;20021;-73
2023/12/30 02:39:45;;;;;;;9.38;1.65;;;7.10;86.60;;;;;;9216133;19;20017;-73
2023/12/30 02:42:53;;;;;;;6.97;1.45;;;7.10;86.60;;;;;;9215586;19;20018;-73
2023/12/30 02:46:01;;;;;;;12.55;1.30;;;7.10;86.60;;;;;;9215583;19;20073;-73
2023/12/30 02:49:11;;;;;;;12.90;1.70;;;7.00;86.50;;;;;;9213633;19;20014;-72
2023/12/30 02:52:23;;;;;;;13.95;1.63;;;7.10;86.60;;;;;;9203754;19;20018;-73
2023/12/30 02:55:33;;;;;;;9.25;1.17;;;7.10;86.60;;;;;;9181538;19;20018;-73
2023/12/30 02:58:38;;;;;;;13.25;2.00;;;7.00;86.50;;;;;;9179887;19;20078;-71
2023/12/30 03:01:48;;;;;;;14.55;1.55;;;7.00;86.50;;;;;;9177051;19;20344;-71
2023/12/30 03:05:03;;;;;;;11.30;1.80;;;7.10;86.60;;;;;;9181055;19;20463;-72
2023/12/30 03:08:10;;;;;;;10.50;1.60;;;7.00;86.50;;;;;;9174729;19;20015;-73
2023/12/30 03:11:19;;;;;;;12.32;2.08;;;7.10;86.60;;;;;;9178885;19;20019;-72
2023/12/30 03:14:26;;;;;;;10.13;1.90;;;7.10;86.60;;;;;;9178365;19;20014;-72
2023/12/30 03:17:32;;;;;;;15.25;1.83;;;7.10;86.60;;;;;;9177053;19;20014;-71
2023/12/30 03:20:39;;;;;;;8.23;2.22;;;7.10;86.60;;;;;;9175222;19;20354;-73
2023/12/30 03:23:45;;;;;;;15.65;1.63;;;7.10;86.60;;;;;;9179171;19;20027;-73
2023/12/30 03:26:55;;;;;;;22.42;2.30;;;7.10;86.50;;;;;;9176823;19;20018;-72
2023/12/30 03:30:02;;;;;;;8.63;2.03;;;7.00;86.40;;;;;;9176713;19;20031;-73
2023/12/30 03:33:10;;;;;;;11.85;1.45;;;7.00;86.40;;;;;;9175938;19;20014;-72
2023/12/30 03:36:16;;;;;;;17.13;2.10;;;7.00;86.40;;;;;;9177640;19;20025;-73
2023/12/30 03:39:23;;;;;;;11.00;1.85;;;7.00;86.40;;;;;;9178568;19;20033;-72
2023/12/30 03:42:35;;;;;;;11.38;1.70;;;6.90;86.40;;;;;;9176782;19;20021;-72
2023/12/30 03:45:45;;;;;;;11.65;2.55;;;7.00;86.50;;;;;;9175881;19;20018;-72
2023/12/30 03:48:51;;;;;;;10.30;1.38;;;6.90;86.40;;;;;;9173321;19;20018;-72
2023/12/30 03:51:59;;;;;;;9.25;1.75;;;6.90;86.40;;;;;;9177078;19;20026;-72
2023/12/30 03:55:05;;;;;;;13.93;2.10;;;7.00;86.40;;;;;;9178622;19;20029;-72
2023/12/30 03:58:15;;;;;;;11.93;1.63;;;6.90;86.30;;;;;;9176957;19;20017;-72
2023/12/30 04:01:23;;;;;;;12.77;2.17;;;6.90;86.40;;;;;;9178709;19;20384;-72
2023/12/30 04:04:31;;;;;;;11.07;1.35;;;6.90;86.50;;;;;;9172131;19;20364;-72
2023/12/30 04:07:37;;;;;;;7.20;1.38;;;6.90;86.40;;;;;;9174301;19;20074;-71
2023/12/30 04:10:44;;;;;;;8.88;1.60;;;6.90;86.50;;;;;;9177045;19;20021;-72
2023/12/30 04:13:52;;;;;;;10.82;1.90;;;6.90;86.50;;;;;;9175570;19;20022;-73
2023/12/30 04:17:00;;;;;;;6.32;1.65;;;6.90;86.50;;;;;;9175094;19;20018;-75
2023/12/30 04:20:07;;;;;;;12.30;1.92;;;6.90;86.40;;;;;;9174282;19;20022;-72
2023/12/30 04:23:14;;;;;;;7.22;1.55;;;6.90;86.50;;;;;;9174511;19;20033;-72
2023/12/30 04:26:20;;;;;;;10.50;1.40;;;6.90;86.40;;;;;;9174477;19;20602;-72
2023/12/30 04:29:31;;;;;;;15.98;2.15;;;6.90;86.40;;;;;;9176225;19;20011;-72
2023/12/30 04:32:36;;;;;;;5.95;1.30;;;6.90;86.40;;;;;;9177259;19;20019;-72
2023/12/30 04:35:46;;;;;;;10.85;1.55;;;6.90;86.40;;;;;;9177388;19;20013;-72
2023/12/30 04:38:52;;;;;;;17.42;1.70;;;6.90;86.50;;;;;;9174835;19;20647;-71
2023/12/30 04:42:02;;;;;;;10.85;2.05;;;6.90;86.50;;;;;;9174508;19;20496;-72
2023/12/30 04:45:12;;;;;;;7.95;1.50;;;6.90;86.50;;;;;;9173875;19;20018;-72
2023/12/30 04:48:20;;;;;;;11.10;1.50;;;6.90;86.50;;;;;;9173770;19;20010;-72
2023/12/30 04:51:26;;;;;;;9.57;1.60;;;6.90;86.50;;;;;;9170177;19;20022;-72
2023/12/30 04:54:34;;;;;;;10.43;1.20;;;6.90;86.50;;;;;;9174292;19;20014;-72
2023/12/30 04:57:41;;;;;;;10.05;1.50;;;6.90;86.50;;;;;;9174847;19;20380;-72
2023/12/30 05:00:51;;;;;;;13.68;1.80;;;6.90;87.10;;;;;;9170501;19;20015;-72
2023/12/30 05:03:57;;;;;;;7.53;1.42;;;6.90;86.50;;;;;;9174104;19;20025;-71
2023/12/30 05:07:05;;;;;;;15.43;1.70;;;6.90;86.50;;;;;;9174209;19;20022;-72
2023/12/30 05:10:12;;;;;;;12.50;1.52;;;6.90;86.50;;;;;;9173905;19;20353;-73
2023/12/30 05:13:19;;;;;;;15.38;1.92;;;6.90;86.50;;;;;;9171738;19;20014;-72
2023/12/30 05:16:28;;;;;;;12.32;2.05;;;6.90;86.50;;;;;;9171100;19;20017;-72
2023/12/30 05:19:36;;;;;;;10.70;1.65;;;6.90;86.60;;;;;;9173476;19;20017;-73
2023/12/30 05:22:42;;;;;;;5.85;1.70;;;6.90;86.60;;;;;;9173798;19;20018;-73
2023/12/30 05:25:50;;;;;;;15.98;2.03;;;7.00;86.60;;;;;;9173405;19;20015;-74
2023/12/30 05:28:57;;;;;;;5.80;1.80;;;6.90;86.50;;;;;;9174699;19;20014;-73
2023/12/30 05:32:08;;;;;;;13.57;1.67;;;7.00;87.20;;;;;;9174387;19;20010;-73
2023/12/30 05:35:13;;;;;;;17.38;1.83;;;7.00;86.60;;;;;;9172598;19;20018;-72
2023/12/30 05:38:21;;;;;;;15.00;2.17;;;7.00;86.60;;;;;;9169137;19;20025;-74
2023/12/30 05:41:26;;;;;;;8.77;1.60;;;7.00;86.70;;;;;;9175695;19;20077;-74
2023/12/30 05:44:35;;;;;;;11.52;1.77;;;7.00;86.60;;;;;;9171280;19;20025;-73
2023/12/30 05:47:46;;;;;;;17.98;2.45;;;7.00;86.60;;;;;;9171282;19;20098;-73
2023/12/30 05:50:53;;;;;;;11.50;2.03;;;7.00;86.60;;;;;;9169939;19;20010;-73
2023/12/30 05:53:59;;;;;;;11.10;1.83;;;7.10;86.60;;;;;;9175077;19;20018;-73
2023/12/30 05:57:06;;;;;;;15.32;1.98;;;7.10;87.20;;;;;;9171375;19;20019;-73
2023/12/30 06:00:14;;;;;;;8.00;1.90;;;7.10;86.60;;;;;;9172609;19;20022;-73
2023/12/30 06:03:24;;;;;;;12.82;1.38;;;7.10;86.60;;;;;;9173475;19;20018;-73
2023/12/30 06:06:30;;;;;;;12.88;1.65;;;7.10;86.60;;;;;;9173293;19;20049;-72
2023/12/30 06:09:39;;;;;;;13.27;1.90;;;7.10;86.60;;;;;;9174518;19;20018;-73
2023/12/30 06:12:44;;;;;;;13.15;1.65;;;7.10;86.60;;;;;;9173859;19;20026;-73
2023/12/30 06:15:53;;;;;;;19.60;2.10;;;7.10;86.60;;;;;;9174868;19;20763;-73
2023/12/30 06:19:01;;;;;;;12.43;1.70;;;7.10;86.60;;;;;;9172616;19;20023;-73
2023/12/30 06:22:09;;;;;;;8.10;1.50;;;7.10;86.60;;;;;;9170076;19;20550;-73
2023/12/30 06:25:15;;;;;;;14.07;1.45;;;7.10;86.60;;;;;;9170917;19;20026;-73
2023/12/30 06:28:24;;;;;;;16.65;3.17;;;7.10;86.60;;;;;;9177097;19;20010;-70
2023/12/30 06:31:30;;;;;;;9.73;2.03;;;7.10;86.60;;;;;;9181129;19;20018;-73
2023/12/30 06:34:46;;;;;;;13.82;2.55;;;7.10;86.60;;;;;;9179341;19;20495;-68
2023/12/30 06:38:01;;;;;;;12.63;1.60;;;7.10;86.60;;;;;;9182206;19;20017;-69
2023/12/30 06:41:09;;;;;;;18.85;3.00;;;7.10;86.60;;;;;;9179518;19;20010;-69
2023/12/30 06:44:15;;;;;;;14.00;1.90;;;7.10;86.60;;;;;;9178337;19;20018;-69
2023/12/30 06:47:24;;;;;;;14.32;2.90;;;7.10;86.60;;;;;;9179203;19;20021;-69
2023/12/30 06:50:33;;;;;;;22.02;2.35;;;7.10;86.60;;;;;;9175821;19;20018;-70
2023/12/30 06:53:50;;;;;;;15.18;2.58;;;7.10;86.60;;;;;;9176372;19;20015;-69
2023/12/30 06:56:55;;;;;;;20.13;2.00;;;7.10;86.60;;;;;;9181392;19;20015;-71
2023/12/30 07:00:13;;;;;;;12.80;2.05;;;7.10;86.60;;;;;;9176587;19;20021;-72
2023/12/30 07:03:18;;;;;;;11.55;1.95;;;7.00;86.60;;;;;;9178760;19;20030;-71
2023/12/30 07:06:29;;;;;;;13.18;1.80;;;7.10;86.70;;;;;;9177669;19;20461;-68
2023/12/30 07:09:35;;;;;;;21.80;2.00;;;7.10;86.70;;;;;;9176328;19;20019;-69
2023/12/30 07:12:51;;;;;;;13.43;1.83;;;7.00;86.60;;;;;;9179068;19;20654;-69
2023/12/30 07:15:57;;;;;;;19.70;2.20;;;7.00;86.60;;;;;;9181502;19;20345;-68
2023/12/30 07:19:06;;;;;;;10.98;1.77;;;7.00;86.60;;;;;;9180205;19;20014;-71
2023/12/30 07:22:19;;;;;;;5.60;2.00;;;7.00;86.70;;;;;;9178362;19;20107;-68
2023/12/30 07:25:27;;;;;;;9.15;2.60;;;7.00;86.60;;;;;;9176799;19;20018;-69
2023/12/30 07:28:34;;;;;;;10.82;1.88;;;7.00;86.60;;;;;;9177692;19;20022;-69
2023/12/30 07:31:43;;;;;;;18.02;2.88;;;7.00;86.60;;;;;;9177306;19;20018;-70
2023/12/30 07:34:54;;;;;;;22.95;3.17;;;7.00;86.60;;;;;;9177527;19;20424;-69
2023/12/30 07:38:06;;;;;;;19.05;2.90;;;7.00;86.60;;;;;;9177095;19;20029;-72
2023/12/30 07:41:14;;;;;;;11.13;2.50;;;7.00;86.60;;;;;;9180493;19;20023;-72
2023/12/30 07:44:26;;;;;;;18.13;3.75;;;7.00;86.60;;;;;;9175088;19;20018;-72
2023/12/30 07:47:33;;;;;;;9.02;2.28;;;7.00;86.60;;;;;;9177928;19;20044;-72
2023/12/30 07:50:41;;;;;;;14.02;2.13;;;7.00;86.70;;;;;;9172502;19;20014;-72
2023/12/30 07:53:49;;;;;;;10.07;2.47;;;7.00;86.70;;;;;;9175631;19;20052;-73
2023/12/30 07:56:58;;;;;;;16.98;3.25;;;7.00;86.70;;;;;;9177411;19;20183;-72
2023/12/30 08:00:04;;;;;;;10.45;2.72;;;7.00;86.70;;;;;;9180468;19;20372;-72
2023/12/30 08:03:18;;;;;;;15.13;2.20;;;6.90;86.60;;;;;;9177088;19;20022;-72
2023/12/30 08:06:24;;;;;;;18.45;2.45;;;6.90;86.60;;;;;;9179233;19;20028;-72
2023/12/30 08:09:35;;;;;;;12.35;2.00;;;6.90;86.70;;;;;;9179377;19;20006;-73
2023/12/30 08:12:43;;;;;;;10.88;2.10;;;6.90;86.80;;;;;;9178448;19;20021;-72
2023/12/30 08:15:57;;;;;;;16.08;2.28;;;6.90;86.80;;;;;;9176499;19;20030;-64
2023/12/30 08:19:02;;;;;;;21.50;2.47;;;6.90;86.80;;;;;;9177153;19;20022;-64
2023/12/30 08:22:10;;;;;;;35.63;9.65;;;6.90;86.80;;;;;;9178426;19;20029;-69
2023/12/30 08:25:18;;;;;;;12.75;2.38;;;6.90;86.80;;;;;;9172718;19;20022;-63
2023/12/30 08:28:26;;;;;;;18.05;2.03;;;6.90;86.90;;;;;;9176707;19;20014;-63
2023/12/30 08:31:32;;;;;;;17.80;2.45;;;6.90;86.90;;;;;;9174538;19;20010;-63
2023/12/30 08:34:39;;;;;;;18.52;2.28;;;6.90;87.00;;;;;;9176668;19;20018;-64
2023/12/30 08:37:45;;;;;;;27.38;2.90;;;6.90;87.00;;;;;;9174923;19;20022;-65
2023/12/30 08:40:55;;;;;;;10.40;2.22;;;6.90;87.10;;;;;;9175329;19;20030;-64
2023/12/30 08:44:00;;;;;;;14.15;3.28;;;6.90;87.10;;;;;;9177783;19;20022;-63
2023/12/30 08:47:09;;;;;;;17.17;2.80;;;6.90;87.10;;;;;;9174577;19;20021;-67
2023/12/30 08:50:15;;;;;;;20.52;4.25;;;6.90;87.10;;;;;;9170451;19;20567;-66
2023/12/30 08:53:24;;;;;;;11.27;2.60;;;6.90;87.20;;;;;;9176970;19;20011;-66
2023/12/30 08:56:37;;;;;;;17.48;2.47;;;6.90;87.10;;;;;;9176608;19;20010;-67
2023/12/30 08:59:44;;;;;;;16.40;3.05;;;7.00;87.20;;;;;;9176545;19;20011;-70
2023/12/30 09:02:54;;;;;;;14.85;2.40;;;7.00;87.20;;;;;;9177172;19;20018;-68
2023/12/30 09:06:02;;;;;;;14.85;2.35;;;7.00;87.20;;;;;;9174932;19;20018;-69
2023/12/30 09:09:08;;;;;;;8.45;3.03;;;7.00;87.20;;;;;;9176110;19;20026;-68
2023/12/30 09:12:19;;;;;;;10.65;2.80;;;7.00;87.20;;;;;;9175366;19;20345;-70
2023/12/30 09:15:25;;;;;;;7.78;2.38;;;7.10;87.30;;;;;;9176771;19;20014;-69
2023/12/30 09:18:36;;;;;;;23.52;3.05;;;7.10;87.30;;;;;;9176664;19;20511;-70
2023/12/30 09:21:41;;;;;;;16.20;3.55;;;7.10;87.30;;;;;;9169727;19;20014;-71
2023/12/30 09:24:49;;;;;;;18.00;3.25;;;7.20;87.40;;;;;;9170342;19;20018;-68
2023/12/30 09:27:57;;;;;;;17.20;2.95;;;7.20;87.40;;;;;;9171800;19;20019;-69
2023/12/30 09:31:04;;;;;;;13.43;3.20;;;7.20;87.50;;;;;;9176157;19;20107;-68
2023/12/30 09:34:10;;;;;;;20.42;3.35;;;7.20;87.40;;;;;;9174996;19;20011;-69
2023/12/30 09:37:19;;;;;;;18.92;3.38;;;7.30;87.50;;;;;;9173525;19;20010;-70
2023/12/30 09:40:27;;;;;;;16.20;3.40;;;7.30;87.60;;;;;;9175743;19;20018;-69
2023/12/30 09:43:39;;;;;;;24.65;4.30;;;7.40;87.60;;;;;;9167459;19;20002;-69
2023/12/30 09:46:45;;;;;;;24.08;3.83;;;7.30;87.60;;;;;;9169969;19;20015;-69
2023/12/30 09:49:55;;;;;;;17.15;2.90;;;7.40;87.70;;;;;;9169385;19;20015;-70
2023/12/30 09:53:03;;;;;;;18.63;3.40;;;7.40;87.70;;;;;;9175128;19;20022;-69
2023/12/30 09:56:12;;;;;;;18.05;3.20;;;7.50;87.80;;;;;;9173185;19;20018;-71
2023/12/30 09:59:23;;;;;;;15.52;2.88;;;7.50;87.80;;;;;;9175492;19;20017;-69
2023/12/30 10:02:32;;;;;;;18.95;2.70;;;7.60;87.90;;;;;;9179426;19;20014;-70
2023/12/30 10:05:39;;;;;;;13.30;2.75;;;7.60;87.80;;;;;;9182501;19;20014;-69
2023/12/30 10:08:48;;;;;;;21.65;3.05;;;7.70;87.90;;;;;;9181879;19;20022;-70
2023/12/30 10:11:57;;;;;;;13.60;3.08;;;7.70;87.90;;;;;;9184932;19;20019;-71
2023/12/30 10:15:08;;;;;;;12.50;2.83;;;7.80;88.00;;;;;;9183871;19;20014;-69
2023/12/30 10:18:17;;;;;;;21.52;3.85;;;7.80;88.00;;;;;;9180297;19;20026;-70
2023/12/30 10:21:25;;;;;;;19.77;2.55;;;7.90;88.10;;;;;;9183920;19;20023;-69
2023/12/30 10:24:30;;;;;;;12.95;3.83;;;8.00;88.10;;;;;;9183199;19;20063;-70
2023/12/30 10:27:38;;;;;;;23.27;3.70;;;8.00;88.10;;;;;;9179345;19;20420;-69
2023/12/30 10:30:47;;;;;;;22.75;3.60;;;8.10;88.20;;;;;;9183210;19;20014;-70
2023/12/30 10:33:55;;;;;;;18.77;3.58;;;8.20;88.80;;;;;;9183767;19;20022;-70
2023/12/30 10:37:02;;;;;;;11.13;2.35;;;8.30;88.20;;;;;;9183126;19;20078;-69
2023/12/30 10:40:12;;;;;;;16.70;2.95;;;8.40;88.30;;;;;;9178980;19;20014;-70
2023/12/30 10:43:18;;;;;;;15.07;3.10;;;8.40;88.20;;;;;;9182789;19;20504;-71
2023/12/30 10:46:29;;;;;;;22.10;3.50;;;8.50;88.20;;;;;;9179406;19;20023;-69
2023/12/30 10:49:35;;;;;;;12.25;2.72;;;8.60;88.80;;;;;;9177052;19;20018;-70
2023/12/30 10:52:47;;;;;;;16.33;3.38;;;8.70;88.20;;;;;;9182534;19;20015;-70
2023/12/30 10:55:58;;;;;;;16.63;2.38;;;8.70;88.20;;;;;;9180103;19;20015;-70
2023/12/30 10:59:07;;;;;;;17.08;3.33;;;8.80;88.10;;;;;;9181292;19;20673;-69
2023/12/30 11:02:16;;;;;;;16.75;3.80;;;8.80;88.00;;;;;;9177427;19;20022;-70
2023/12/30 11:05:32;;;;;;;24.67;2.42;;;8.90;88.00;;;;;;9179804;19;20030;-70
2023/12/30 11:08:41;;;;;;;16.05;3.13;;;9.00;88.00;;;;;;9181481;19;20027;-70
2023/12/30 11:11:52;;;;;;;18.05;2.75;;;9.00;87.90;;;;;;9181705;19;20022;-70
2023/12/30 11:15:03;;;;;;;31.23;3.35;;;9.10;87.90;;;;;;9179272;19;20015;-71
2023/12/30 11:18:16;;;;;;;13.68;2.95;;;9.10;87.90;;;;;;9178688;19;20023;-72
2023/12/30 11:21:42;;;;;;;15.85;2.50;;;9.20;87.80;;;;;;9180924;19;20022;-72
2023/12/30 11:24:51;;;;;;;21.73;3.42;;;9.20;87.80;;;;;;9178326;19;20029;-73
2023/12/30 11:27:56;;;;;;;17.05;2.80;;;9.20;87.70;;;;;;9178265;19;20025;-74
2023/12/30 11:31:04;;;;;;;16.63;2.72;;;9.20;88.30;;;;;;9178576;19;20030;-72
2023/12/30 11:34:14;;;;;;;25.88;3.78;;;9.30;87.60;;;;;;9179210;19;20471;-73
2023/12/30 11:37:22;;;;;;;19.80;3.58;;;9.30;87.50;;;;;;9180754;19;20015;-72
2023/12/30 11:40:31;;;;;;;20.58;3.67;;;9.30;87.50;;;;;;9180612;19;20011;-70
2023/12/30 11:43:39;;;;;;;21.70;3.22;;;9.40;87.50;;;;;;9178396;19;20029;-71
2023/12/30 11:46:44;;;;;;;14.43;3.65;;;9.40;87.50;;;;;;9175165;19;20014;-71
2023/12/30 11:50:04;;;;;;;18.58;4.50;;;9.40;87.50;;;;;;9172973;19;20025;-73
2023/12/30 11:53:10;;;;;;;26.20;5.45;;;9.40;87.40;;;;;;9180176;19;20023;-73
2023/12/30 11:56:19;;;;;;;19.75;5.72;;;9.40;87.30;;;;;;9176708;19;20022;-73
2023/12/30 11:59:25;;;;;;;22.67;4.65;;;9.50;87.40;;;;;;9178657;19;20078;-73
2023/12/30 12:02:34;;;;;;;17.70;4.47;;;9.40;87.20;;;;;;9180122;19;20022;-73
2023/12/30 12:05:42;;;;;;;18.52;3.60;;;9.40;87.20;;;;;;9176769;19;20025;-73
2023/12/30 12:09:00;;;;;;;24.88;3.35;;;9.50;87.20;;;;;;9179514;19;20021;-73
2023/12/30 12:12:10;;;;;;;15.40;3.17;;;9.40;87.20;;;;;;9179430;19;20026;-74
2023/12/30 12:15:19;;;;;;;22.92;3.53;;;9.40;87.20;;;;;;9178290;19;20019;-74
2023/12/30 12:18:25;;;;;;;17.02;3.63;;;9.50;87.20;;;;;;9178698;19;20364;-74
2023/12/30 12:21:36;;;;;;;17.33;3.45;;;9.40;87.10;;;;;;9179071;19;20015;-74
2023/12/30 12:24:41;;;;;;;22.92;3.90;;;9.50;87.20;;;;;;9175241;19;20019;-73
2023/12/30 12:27:51;;;;;;;18.48;3.38;;;9.50;87.20;;;;;;9175522;19;20486;-70
2023/12/30 12:30:56;;;;;;;17.02;3.10;;;9.50;87.20;;;;;;9176733;19;20019;-71
2023/12/30 12:34:23;;;;;;;18.73;3.55;;;9.60;87.30;;;;;;9176823;19;20011;-78
2023/12/30 12:37:31;;;;;;;;;;;9.60;87.30;;;;;;9180316;19;20006;-71
2023/12/30 12:40:42;;;;;;;23.70;5.25;;;9.60;87.20;;;;;;9178122;19;19934;-73
2023/12/30 12:43:47;;;;;;;20.42;3.30;;;9.60;87.20;;;;;;9177963;19;20019;-73
2023/12/30 12:46:55;;;;;;;14.57;3.08;;;9.60;87.10;;;;;;9174669;19;20010;-73
2023/12/30 12:50:09;;;;;;;21.00;4.22;;;9.60;87.10;;;;;;9174024;19;20018;-73
2023/12/30 12:53:22;;;;;;;26.55;5.55;;;9.60;87.10;;;;;;9177419;19;20014;-73
2023/12/30 12:56:27;;;;;;;17.27;3.05;;;9.70;87.20;;;;;;9177008;19;20026;-73
2023/12/30 12:59:45;;;;;;;11.90;3.63;;;9.60;87.00;;;;;;9177618;19;20029;-73
2023/12/30 13:02:59;;;;;;;19.45;3.58;;;9.70;87.10;;;;;;9176452;19;20032;-73
2023/12/30 13:06:17;;;;;;;20.75;3.75;;;9.70;87.10;;;;;;9173680;19;20018;-73
2023/12/30 13:09:34;;;;;;;16.45;3.25;;;9.70;87.00;;;;;;9177053;19;20095;-73
2023/12/30 13:12:42;;;;;;;17.95;3.70;;;9.70;87.10;;;;;;9176438;19;20025;-73
2023/12/30 13:15:48;;;;;;;19.25;3.90;;;9.70;87.00;;;;;;9174774;19;20015;-73
2023/12/30 13:18:55;;;;;;;21.55;5.50;;;9.80;87.00;;;;;;9176084;19;20015;-73
2023/12/30 13:22:01;;;;;;;30.70;4.95;;;9.70;87.00;;;;;;9174669;19;20018;-73
2023/12/30 13:25:13;;;;;;;19.63;4.93;;;9.70;87.00;;;;;;9174538;19;20018;-73
2023/12/30 13:28:19;;;;;;;26.15;4.82;;;9.80;87.10;;;;;;9173857;19;20023;-73
2023/12/30 13:31:31;;;;;;;27.00;5.05;;;9.80;87.10;;;;;;9176102;19;20022;-73
2023/12/30 13:34:39;;;;;;;30.27;5.13;;;9.80;87.10;;;;;;9175228;19;20061;-73
2023/12/30 13:37:47;;;;;;;37.47;5.13;;;9.80;87.10;;;;;;9174770;19;20381;-70
2023/12/30 13:41:00;;;;;;;19.17;4.18;;;9.80;87.10;;;;;;9175774;19;20015;-72
2023/12/30 13:44:15;;;;;;;22.52;4.47;;;9.80;87.20;;;;;;9175766;19;20022;-69
2023/12/30 13:47:38;;;;;;;27.98;5.10;;;9.80;87.10;;;;;;9175057;19;20056;-70
2023/12/30 13:50:52;;;;;;;17.10;3.92;;;9.80;87.10;;;;;;9169562;19;20491;-70
2023/12/30 13:54:00;;;;;;;26.48;4.10;;;9.90;87.20;;;;;;9171736;19;20058;-70
2023/12/30 13:57:20;;;;;;;17.70;4.53;;;9.90;87.20;;;;;;9172514;19;20014;-70
2023/12/30 14:00:26;;;;;;;25.77;4.03;;;9.90;87.20;;;;;;9169703;19;20030;-69
2023/12/30 14:03:33;;;;;;;16.30;3.90;;;9.90;87.20;;;;;;9173235;19;20021;-69
2023/12/30 14:06:39;;;;;;;25.13;4.85;;;9.90;87.20;;;;;;9171013;19;20022;-71
2023/12/30 14:09:54;;;;;;;23.70;3.83;;;9.90;87.20;;;;;;9173125;19;20015;-71
2023/12/30 14:13:02;;;;;;;19.55;4.30;;;9.90;87.20;;;;;;9174503;19;20018;-70
2023/12/30 14:16:13;;;;;;;22.33;4.68;;;10.00;87.20;;;;;;9174706;19;20502;-70
2023/12/30 14:19:21;;;;;;;26.05;3.72;;;10.00;87.20;;;;;;9174411;19;20073;-70
2023/12/30 14:22:29;;;;;;;20.48;4.93;;;10.00;87.20;;;;;;9170874;19;20022;-72
2023/12/30 14:25:35;;;;;;;19.05;4.93;;;10.00;87.20;;;;;;9173478;19;20053;-72
2023/12/30 14:28:45;;;;;;;19.70;4.40;;;10.00;87.20;;;;;;9172805;19;20107;-69
2023/12/30 14:31:50;;;;;;;18.25;4.28;;;10.00;87.30;;;;;;9173572;19;20044;-71
2023/12/30 14:34:58;;;;;;;19.20;4.68;;;10.00;87.20;;;;;;9173411;19;20017;-69
2023/12/30 14:38:05;;;;;;;32.72;6.68;;;10.10;87.20;;;;;;9174114;19;20746;-68
2023/12/30 14:41:12;;;;;;;18.27;4.53;;;10.00;87.20;;;;;;9171646;19;20712;-69
2023/12/30 14:44:21;;;;;;;18.98;4.38;;;10.00;87.20;;;;;;9171251;19;20022;-70
2023/12/30 14:47:28;;;;;;;19.13;4.53;;;10.00;87.20;;;;;;9173177;19;20025;-74
2023/12/30 14:50:34;;;;;;;22.60;7.50;;;10.00;87.10;;;;;;9178470;19;20014;-74
2023/12/30 14:53:42;;;;;;;17.90;4.53;;;10.00;87.80;;;;;;9180051;19;20527;-74
2023/12/30 14:56:48;;;;;;;23.15;5.38;;;10.00;87.10;;;;;;9182323;19;20018;-74
2023/12/30 14:59:58;;;;;;;26.45;6.70;;;10.00;87.10;;;;;;9181465;19;20018;-74
2023/12/30 15:03:07;;;;;;;18.75;5.90;;;10.00;87.10;;;;;;9181202;19;20018;-74
2023/12/30 15:06:17;;;;;;;28.90;6.88;;;10.00;87.10;;;;;;9178103;19;20026;-74
2023/12/30 15:09:23;;;;;;;19.33;5.97;;;10.00;87.20;;;;;;9175549;19;20014;-73
2023/12/30 15:12:33;;;;;;;27.77;8.73;;;10.00;87.10;;;;;;9180519;19;20014;-74
2023/12/30 15:15:41;;;;;;;60.25;15.35;;;10.00;87.10;;;;;;9180445;19;20026;-74
2023/12/30 15:18:48;;;;;;;26.70;7.18;;;10.00;87.10;;;;;;9179551;19;20017;-74
2023/12/30 15:21:54;;;;;;;15.55;5.07;;;9.90;87.00;;;;;;9179626;19;20024;-74
2023/12/30 15:25:02;;;;;;;25.98;4.47;;;9.90;87.00;;;;;;9179371;19;20019;-74
2023/12/30 15:28:09;;;;;;;22.70;4.28;;;9.90;87.10;;;;;;9178860;19;20376;-74
2023/12/30 15:31:19;;;;;;;22.92;4.20;;;9.90;87.10;;;;;;9179943;19;20014;-74
2023/12/30 15:34:25;;;;;;;15.30;4.07;;;9.80;87.00;;;;;;9179242;19;20052;-74
2023/12/30 15:37:33;;;;;;;16.13;4.35;;;9.80;87.00;;;;;;9179388;19;20015;-74
2023/12/30 15:40:40;;;;;;;20.27;4.47;;;9.80;86.90;;;;;;9180571;19;20340;-74
2023/12/30 15:43:49;;;;;;;15.02;4.45;;;9.70;86.90;;;;;;9179664;19;20030;-74
2023/12/30 15:46:58;;;;;;;22.52;4.97;;;9.70;86.90;;;;;;9179986;19;20657;-74
2023/12/30 15:50:09;;;;;;;19.52;5.35;;;9.70;86.90;;;;;;9171050;19;20022;-75
2023/12/30 15:53:15;;;;;;;26.27;5.90;;;9.70;86.90;;;;;;9179172;19;20006;-74
2023/12/30 15:56:22;;;;;;;24.90;5.78;;;9.60;86.90;;;;;;9180097;19;20476;-74
2023/12/30 15:59:29;;;;;;;21.52;4.45;;;9.60;87.00;;;;;;9178989;19;20022;-73
2023/12/30 16:02:42;;;;;;;17.63;4.50;;;9.70;87.00;;;;;;9178615;19;20015;-73
2023/12/30 16:05:48;;;;;;;21.90;4.07;;;9.60;86.90;;;;;;9176859;19;20014;-73
2023/12/30 16:09:00;;;;;;;18.85;4.10;;;9.60;86.90;;;;;;9171980;19;20756;-73
2023/12/30 16:12:10;;;;;;;15.18;4.30;;;9.50;86.90;;;;;;9175568;19;20021;-73
2023/12/30 16:15:21;;;;;;;16.48;4.13;;;9.50;86.80;;;;;;9176768;19;20480;-73
2023/12/30 16:18:29;;;;;;;16.67;3.67;;;9.50;86.90;;;;;;9178630;19;20022;-73
2023/12/30 16:21:37;;;;;;;33.35;4.07;;;9.50;86.90;;;;;;9178476;19;20388;-73
2023/12/30 16:24:45;;;;;;;12.13;3.00;;;9.50;86.90;;;;;;9177774;19;20026;-73
2023/12/30 16:27:53;;;;;;;21.85;4.22;;;9.40;86.80;;;;;;9176225;19;20416;-72